sensor_id;sensor_type;location;lat;lon;timestamp;P1;durP1;ratioP1;P2;durP2;ratioP2
44925;SDS011;30662;51.210;7.656;2023-05-31T00:02:06;12.73;;;9.02;;
44925;SDS011;30662;51.210;7.656;2023-05-31T00:04:32;13.65;;;9.88;;
44925;SDS011;30662;51.210;7.656;2023-05-31T00:06:58;11.38;;;8.88;;
44925;SDS011;30662;51.210;7.656;2023-05-31T00:09:24;13.13;;;9.98;;
44925;SDS011;30662;51.210;7.656;2023-05-31T00:11:50;14.32;;;9.80;;
44925;SDS011;30662;51.210;7.656;2023-05-31T00:14:16;15.30;;;9.40;;
44925;SDS011;30662;51.210;7.656;2023-05-31T00:16:42;16.38;;;10.30;;
44925;SDS011;30662;51.210;7.656;2023-05-31T00:24:19;15.55;;;9.63;;
44925;SDS011;30662;51.210;7.656;2023-05-31T00:26:45;14.18;;;9.18;;
44925;SDS011;30662;51.210;7.656;2023-05-31T00:29:11;13.15;;;9.57;;
44925;SDS011;30662;51.210;7.656;2023-05-31T00:31:37;14.48;;;10.43;;
44925;SDS011;30662;51.210;7.656;2023-05-31T00:34:03;13.00;;;8.85;;
44925;SDS011;30662;51.210;7.656;2023-05-31T00:36:29;14.77;;;9.70;;
44925;SDS011;30662;51.210;7.656;2023-05-31T00:38:56;19.90;;;10.10;;
44925;SDS011;30662;51.210;7.656;2023-05-31T00:41:22;13.13;;;9.52;;
44925;SDS011;30662;51.210;7.656;2023-05-31T00:43:49;13.00;;;9.27;;
44925;SDS011;30662;51.210;7.656;2023-05-31T00:46:20;11.68;;;9.70;;
44925;SDS011;30662;51.210;7.656;2023-05-31T00:48:55;16.85;;;9.60;;
44925;SDS011;30662;51.210;7.656;2023-05-31T00:51:22;17.83;;;10.95;;
44925;SDS011;30662;51.210;7.656;2023-05-31T00:53:50;15.32;;;9.93;;
44925;SDS011;30662;51.210;7.656;2023-05-31T00:56:17;14.07;;;9.57;;
44925;SDS011;30662;51.210;7.656;2023-05-31T00:58:44;16.02;;;10.25;;
44925;SDS011;30662;51.210;7.656;2023-05-31T01:01:12;12.00;;;9.30;;
44925;SDS011;30662;51.210;7.656;2023-05-31T01:03:39;16.27;;;10.27;;
44925;SDS011;30662;51.210;7.656;2023-05-31T01:06:06;14.02;;;9.82;;
44925;SDS011;30662;51.210;7.656;2023-05-31T01:08:35;12.88;;;9.25;;
44925;SDS011;30662;51.210;7.656;2023-05-31T01:11:09;14.20;;;10.10;;
44925;SDS011;30662;51.210;7.656;2023-05-31T01:16:41;11.48;;;8.80;;
44925;SDS011;30662;51.210;7.656;2023-05-31T01:19:16;13.85;;;9.77;;
44925;SDS011;30662;51.210;7.656;2023-05-31T01:22:04;16.58;;;9.70;;
44925;SDS011;30662;51.210;7.656;2023-05-31T01:24:58;14.20;;;8.70;;
44925;SDS011;30662;51.210;7.656;2023-05-31T01:27:45;14.68;;;9.82;;
44925;SDS011;30662;51.210;7.656;2023-05-31T01:30:12;18.63;;;9.55;;
44925;SDS011;30662;51.210;7.656;2023-05-31T01:32:38;17.38;;;9.48;;
44925;SDS011;30662;51.210;7.656;2023-05-31T01:35:06;15.80;;;10.23;;
44925;SDS011;30662;51.210;7.656;2023-05-31T01:37:32;14.27;;;8.70;;
44925;SDS011;30662;51.210;7.656;2023-05-31T01:39:58;15.27;;;8.52;;
44925;SDS011;30662;51.210;7.656;2023-05-31T01:42:24;17.00;;;9.77;;
44925;SDS011;30662;51.210;7.656;2023-05-31T01:44:51;14.10;;;8.98;;
44925;SDS011;30662;51.210;7.656;2023-05-31T01:47:19;18.13;;;9.70;;
44925;SDS011;30662;51.210;7.656;2023-05-31T01:49:46;12.80;;;9.55;;
44925;SDS011;30662;51.210;7.656;2023-05-31T01:52:13;14.85;;;9.68;;
44925;SDS011;30662;51.210;7.656;2023-05-31T01:54:41;12.32;;;9.30;;
44925;SDS011;30662;51.210;7.656;2023-05-31T01:57:07;14.85;;;9.90;;
44925;SDS011;30662;51.210;7.656;2023-05-31T01:59:34;12.25;;;8.52;;
44925;SDS011;30662;51.210;7.656;2023-05-31T02:02:02;11.90;;;7.78;;
44925;SDS011;30662;51.210;7.656;2023-05-31T02:04:29;11.15;;;9.00;;
44925;SDS011;30662;51.210;7.656;2023-05-31T02:06:55;12.25;;;8.93;;
44925;SDS011;30662;51.210;7.656;2023-05-31T02:09:20;14.65;;;9.20;;
44925;SDS011;30662;51.210;7.656;2023-05-31T02:11:46;17.25;;;9.20;;
44925;SDS011;30662;51.210;7.656;2023-05-31T02:14:12;12.15;;;8.95;;
44925;SDS011;30662;51.210;7.656;2023-05-31T02:16:38;14.63;;;8.82;;
44925;SDS011;30662;51.210;7.656;2023-05-31T02:19:04;12.00;;;8.60;;
44925;SDS011;30662;51.210;7.656;2023-05-31T02:21:33;13.70;;;8.73;;
44925;SDS011;30662;51.210;7.656;2023-05-31T02:24:01;10.95;;;8.57;;
44925;SDS011;30662;51.210;7.656;2023-05-31T02:26:26;10.75;;;8.35;;
44925;SDS011;30662;51.210;7.656;2023-05-31T02:28:52;12.52;;;8.10;;
44925;SDS011;30662;51.210;7.656;2023-05-31T02:31:18;12.60;;;8.55;;
44925;SDS011;30662;51.210;7.656;2023-05-31T02:33:45;14.10;;;8.90;;
44925;SDS011;30662;51.210;7.656;2023-05-31T02:36:12;14.95;;;8.73;;
44925;SDS011;30662;51.210;7.656;2023-05-31T02:38:39;17.50;;;9.48;;
44925;SDS011;30662;51.210;7.656;2023-05-31T02:41:05;15.45;;;8.98;;
44925;SDS011;30662;51.210;7.656;2023-05-31T02:43:31;14.55;;;8.88;;
44925;SDS011;30662;51.210;7.656;2023-05-31T02:45:57;10.60;;;8.60;;
44925;SDS011;30662;51.210;7.656;2023-05-31T02:48:27;12.68;;;8.82;;
44925;SDS011;30662;51.210;7.656;2023-05-31T02:50:55;14.50;;;9.10;;
44925;SDS011;30662;51.210;7.656;2023-05-31T02:53:21;14.52;;;8.82;;
44925;SDS011;30662;51.210;7.656;2023-05-31T02:55:47;13.43;;;8.82;;
44925;SDS011;30662;51.210;7.656;2023-05-31T02:58:13;14.13;;;8.50;;
44925;SDS011;30662;51.210;7.656;2023-05-31T03:00:40;19.77;;;9.40;;
44925;SDS011;30662;51.210;7.656;2023-05-31T03:03:06;13.48;;;9.02;;
44925;SDS011;30662;51.210;7.656;2023-05-31T03:05:32;14.00;;;8.57;;
44925;SDS011;30662;51.210;7.656;2023-05-31T03:07:59;13.07;;;8.57;;
44925;SDS011;30662;51.210;7.656;2023-05-31T03:10:25;16.75;;;9.10;;
44925;SDS011;30662;51.210;7.656;2023-05-31T03:12:52;13.73;;;9.07;;
44925;SDS011;30662;51.210;7.656;2023-05-31T03:15:18;14.18;;;8.07;;
44925;SDS011;30662;51.210;7.656;2023-05-31T03:17:45;16.35;;;8.93;;
44925;SDS011;30662;51.210;7.656;2023-05-31T03:20:11;13.82;;;9.13;;
44925;SDS011;30662;51.210;7.656;2023-05-31T03:22:38;11.82;;;8.90;;
44925;SDS011;30662;51.210;7.656;2023-05-31T03:25:04;14.40;;;9.00;;
44925;SDS011;30662;51.210;7.656;2023-05-31T03:27:31;15.45;;;8.73;;
44925;SDS011;30662;51.210;7.656;2023-05-31T03:29:57;15.13;;;9.02;;
44925;SDS011;30662;51.210;7.656;2023-05-31T03:32:24;12.40;;;8.48;;
44925;SDS011;30662;51.210;7.656;2023-05-31T03:34:50;10.60;;;7.93;;
44925;SDS011;30662;51.210;7.656;2023-05-31T03:37:16;14.30;;;8.05;;
44925;SDS011;30662;51.210;7.656;2023-05-31T03:39:42;12.60;;;8.40;;
44925;SDS011;30662;51.210;7.656;2023-05-31T03:42:08;17.00;;;8.85;;
44925;SDS011;30662;51.210;7.656;2023-05-31T03:44:34;16.15;;;8.63;;
44925;SDS011;30662;51.210;7.656;2023-05-31T03:47:00;14.25;;;9.10;;
44925;SDS011;30662;51.210;7.656;2023-05-31T03:49:26;13.00;;;8.55;;
44925;SDS011;30662;51.210;7.656;2023-05-31T03:51:52;14.18;;;8.50;;
44925;SDS011;30662;51.210;7.656;2023-05-31T03:54:18;12.82;;;8.70;;
44925;SDS011;30662;51.210;7.656;2023-05-31T03:56:44;12.40;;;8.73;;
44925;SDS011;30662;51.210;7.656;2023-05-31T03:59:11;15.30;;;8.68;;
44925;SDS011;30662;51.210;7.656;2023-05-31T04:01:37;13.43;;;8.52;;
44925;SDS011;30662;51.210;7.656;2023-05-31T04:04:03;14.50;;;8.05;;
44925;SDS011;30662;51.210;7.656;2023-05-31T04:06:29;12.85;;;8.18;;
44925;SDS011;30662;51.210;7.656;2023-05-31T04:08:55;12.30;;;8.05;;
44925;SDS011;30662;51.210;7.656;2023-05-31T04:11:21;11.25;;;7.68;;
44925;SDS011;30662;51.210;7.656;2023-05-31T04:13:48;13.65;;;8.48;;
44925;SDS011;30662;51.210;7.656;2023-05-31T04:16:14;14.32;;;8.63;;
44925;SDS011;30662;51.210;7.656;2023-05-31T04:18:40;16.17;;;9.82;;
44925;SDS011;30662;51.210;7.656;2023-05-31T04:21:06;14.00;;;8.32;;
44925;SDS011;30662;51.210;7.656;2023-05-31T04:23:32;14.27;;;8.02;;
44925;SDS011;30662;51.210;7.656;2023-05-31T04:26:00;12.88;;;8.38;;
44925;SDS011;30662;51.210;7.656;2023-05-31T04:28:27;13.52;;;8.43;;
44925;SDS011;30662;51.210;7.656;2023-05-31T04:30:55;15.13;;;7.80;;
44925;SDS011;30662;51.210;7.656;2023-05-31T04:33:22;15.98;;;8.50;;
44925;SDS011;30662;51.210;7.656;2023-05-31T04:35:49;11.40;;;8.32;;
44925;SDS011;30662;51.210;7.656;2023-05-31T04:38:16;20.80;;;8.32;;
44925;SDS011;30662;51.210;7.656;2023-05-31T04:40:44;13.65;;;8.65;;
44925;SDS011;30662;51.210;7.656;2023-05-31T04:43:10;12.20;;;8.23;;
44925;SDS011;30662;51.210;7.656;2023-05-31T04:45:35;11.48;;;7.65;;
44925;SDS011;30662;51.210;7.656;2023-05-31T04:48:02;15.20;;;8.23;;
44925;SDS011;30662;51.210;7.656;2023-05-31T04:50:28;11.85;;;7.65;;
44925;SDS011;30662;51.210;7.656;2023-05-31T04:52:56;12.95;;;8.23;;
44925;SDS011;30662;51.210;7.656;2023-05-31T04:55:22;12.65;;;8.00;;
44925;SDS011;30662;51.210;7.656;2023-05-31T04:57:48;15.05;;;8.38;;
44925;SDS011;30662;51.210;7.656;2023-05-31T05:00:14;12.73;;;8.40;;
44925;SDS011;30662;51.210;7.656;2023-05-31T05:02:42;19.33;;;8.70;;
44925;SDS011;30662;51.210;7.656;2023-05-31T05:05:11;12.13;;;6.88;;
44925;SDS011;30662;51.210;7.656;2023-05-31T05:07:37;11.55;;;6.70;;
44925;SDS011;30662;51.210;7.656;2023-05-31T05:10:03;9.73;;;7.15;;
44925;SDS011;30662;51.210;7.656;2023-05-31T05:12:30;12.93;;;6.95;;
44925;SDS011;30662;51.210;7.656;2023-05-31T05:14:56;14.73;;;7.60;;
44925;SDS011;30662;51.210;7.656;2023-05-31T05:17:21;15.57;;;7.35;;
44925;SDS011;30662;51.210;7.656;2023-05-31T05:19:47;13.13;;;6.50;;
44925;SDS011;30662;51.210;7.656;2023-05-31T05:22:13;10.40;;;7.47;;
44925;SDS011;30662;51.210;7.656;2023-05-31T05:24:39;11.77;;;7.47;;
44925;SDS011;30662;51.210;7.656;2023-05-31T05:27:06;10.38;;;6.35;;
44925;SDS011;30662;51.210;7.656;2023-05-31T05:29:32;9.90;;;6.47;;
44925;SDS011;30662;51.210;7.656;2023-05-31T05:31:58;13.18;;;6.60;;
44925;SDS011;30662;51.210;7.656;2023-05-31T05:34:24;10.95;;;6.53;;
44925;SDS011;30662;51.210;7.656;2023-05-31T05:36:50;15.15;;;6.85;;
44925;SDS011;30662;51.210;7.656;2023-05-31T05:39:18;11.13;;;6.40;;
44925;SDS011;30662;51.210;7.656;2023-05-31T05:41:44;12.23;;;6.40;;
44925;SDS011;30662;51.210;7.656;2023-05-31T05:44:10;11.07;;;6.00;;
44925;SDS011;30662;51.210;7.656;2023-05-31T05:46:35;15.77;;;9.10;;
44925;SDS011;30662;51.210;7.656;2023-05-31T05:49:02;11.80;;;5.57;;
44925;SDS011;30662;51.210;7.656;2023-05-31T05:51:27;12.13;;;5.68;;
44925;SDS011;30662;51.210;7.656;2023-05-31T05:53:53;13.38;;;5.65;;
44925;SDS011;30662;51.210;7.656;2023-05-31T05:56:19;13.73;;;6.10;;
44925;SDS011;30662;51.210;7.656;2023-05-31T05:58:45;11.15;;;6.15;;
44925;SDS011;30662;51.210;7.656;2023-05-31T06:01:14;12.02;;;5.35;;
44925;SDS011;30662;51.210;7.656;2023-05-31T06:03:49;15.55;;;5.43;;
44925;SDS011;30662;51.210;7.656;2023-05-31T06:06:15;10.07;;;5.20;;
44925;SDS011;30662;51.210;7.656;2023-05-31T06:08:45;10.00;;;5.03;;
44925;SDS011;30662;51.210;7.656;2023-05-31T06:11:12;12.48;;;5.95;;
44925;SDS011;30662;51.210;7.656;2023-05-31T06:13:42;11.05;;;5.57;;
44925;SDS011;30662;51.210;7.656;2023-05-31T06:16:12;8.40;;;4.93;;
44925;SDS011;30662;51.210;7.656;2023-05-31T06:18:39;7.75;;;4.97;;
44925;SDS011;30662;51.210;7.656;2023-05-31T06:21:05;9.95;;;4.72;;
44925;SDS011;30662;51.210;7.656;2023-05-31T06:23:31;10.80;;;5.22;;
44925;SDS011;30662;51.210;7.656;2023-05-31T06:25:57;22.52;;;11.68;;
44925;SDS011;30662;51.210;7.656;2023-05-31T06:28:23;10.95;;;5.45;;
44925;SDS011;30662;51.210;7.656;2023-05-31T06:30:49;10.68;;;4.47;;
44925;SDS011;30662;51.210;7.656;2023-05-31T06:33:15;11.70;;;4.20;;
44925;SDS011;30662;51.210;7.656;2023-05-31T06:35:41;11.77;;;4.15;;
44925;SDS011;30662;51.210;7.656;2023-05-31T06:38:09;10.05;;;4.40;;
44925;SDS011;30662;51.210;7.656;2023-05-31T06:40:41;12.13;;;4.43;;
44925;SDS011;30662;51.210;7.656;2023-05-31T06:43:08;5.53;;;3.53;;
44925;SDS011;30662;51.210;7.656;2023-05-31T06:45:33;10.00;;;4.28;;
44925;SDS011;30662;51.210;7.656;2023-05-31T06:47:59;7.75;;;3.88;;
44925;SDS011;30662;51.210;7.656;2023-05-31T06:50:26;7.60;;;3.90;;
44925;SDS011;30662;51.210;7.656;2023-05-31T06:52:52;9.90;;;3.78;;
44925;SDS011;30662;51.210;7.656;2023-05-31T06:55:18;14.32;;;4.03;;
44925;SDS011;30662;51.210;7.656;2023-05-31T06:57:44;5.18;;;3.30;;
44925;SDS011;30662;51.210;7.656;2023-05-31T07:00:10;8.25;;;4.28;;
44925;SDS011;30662;51.210;7.656;2023-05-31T07:02:36;7.63;;;3.70;;
44925;SDS011;30662;51.210;7.656;2023-05-31T07:05:02;8.88;;;3.63;;
44925;SDS011;30662;51.210;7.656;2023-05-31T07:07:28;8.80;;;3.28;;
44925;SDS011;30662;51.210;7.656;2023-05-31T07:09:54;7.75;;;3.58;;
44925;SDS011;30662;51.210;7.656;2023-05-31T07:12:19;12.50;;;4.15;;
44925;SDS011;30662;51.210;7.656;2023-05-31T07:14:46;5.47;;;2.80;;
44925;SDS011;30662;51.210;7.656;2023-05-31T07:17:12;8.35;;;3.80;;
44925;SDS011;30662;51.210;7.656;2023-05-31T07:19:44;8.52;;;3.33;;
44925;SDS011;30662;51.210;7.656;2023-05-31T07:22:14;7.32;;;3.78;;
44925;SDS011;30662;51.210;7.656;2023-05-31T07:24:41;8.18;;;3.53;;
44925;SDS011;30662;51.210;7.656;2023-05-31T07:27:08;7.43;;;3.17;;
44925;SDS011;30662;51.210;7.656;2023-05-31T07:29:34;6.00;;;3.33;;
44925;SDS011;30662;51.210;7.656;2023-05-31T07:32:00;6.05;;;3.20;;
44925;SDS011;30662;51.210;7.656;2023-05-31T07:34:26;9.63;;;3.80;;
44925;SDS011;30662;51.210;7.656;2023-05-31T07:36:52;8.50;;;3.95;;
44925;SDS011;30662;51.210;7.656;2023-05-31T07:39:20;4.85;;;2.75;;
44925;SDS011;30662;51.210;7.656;2023-05-31T07:41:47;10.45;;;2.90;;
44925;SDS011;30662;51.210;7.656;2023-05-31T07:44:13;6.90;;;3.13;;
44925;SDS011;30662;51.210;7.656;2023-05-31T07:46:39;6.97;;;2.80;;
44925;SDS011;30662;51.210;7.656;2023-05-31T07:49:04;6.53;;;3.50;;
44925;SDS011;30662;51.210;7.656;2023-05-31T07:51:30;5.97;;;2.58;;
44925;SDS011;30662;51.210;7.656;2023-05-31T07:53:57;5.35;;;2.97;;
44925;SDS011;30662;51.210;7.656;2023-05-31T07:56:23;6.70;;;2.13;;
44925;SDS011;30662;51.210;7.656;2023-05-31T07:58:49;6.90;;;2.42;;
44925;SDS011;30662;51.210;7.656;2023-05-31T08:01:15;7.25;;;2.22;;
44925;SDS011;30662;51.210;7.656;2023-05-31T08:03:41;4.85;;;2.72;;
44925;SDS011;30662;51.210;7.656;2023-05-31T08:06:08;7.07;;;3.05;;
44925;SDS011;30662;51.210;7.656;2023-05-31T08:08:36;5.88;;;2.35;;
44925;SDS011;30662;51.210;7.656;2023-05-31T08:11:02;6.30;;;2.13;;
44925;SDS011;30662;51.210;7.656;2023-05-31T08:13:28;7.15;;;2.35;;
44925;SDS011;30662;51.210;7.656;2023-05-31T08:15:54;4.30;;;2.25;;
44925;SDS011;30662;51.210;7.656;2023-05-31T08:18:21;6.97;;;1.88;;
44925;SDS011;30662;51.210;7.656;2023-05-31T08:20:48;5.97;;;1.90;;
44925;SDS011;30662;51.210;7.656;2023-05-31T08:23:17;2.47;;;1.70;;
44925;SDS011;30662;51.210;7.656;2023-05-31T08:25:44;4.70;;;2.28;;
44925;SDS011;30662;51.210;7.656;2023-05-31T08:28:10;5.00;;;2.67;;
44925;SDS011;30662;51.210;7.656;2023-05-31T08:30:36;4.60;;;2.15;;
44925;SDS011;30662;51.210;7.656;2023-05-31T08:33:02;3.70;;;2.45;;
44925;SDS011;30662;51.210;7.656;2023-05-31T08:35:28;8.60;;;2.60;;
44925;SDS011;30662;51.210;7.656;2023-05-31T08:37:54;4.40;;;2.05;;
44925;SDS011;30662;51.210;7.656;2023-05-31T08:40:22;8.02;;;2.40;;
44925;SDS011;30662;51.210;7.656;2023-05-31T08:42:51;6.60;;;2.90;;
44925;SDS011;30662;51.210;7.656;2023-05-31T08:45:21;8.25;;;2.03;;
44925;SDS011;30662;51.210;7.656;2023-05-31T08:50:52;3.08;;;2.00;;
44925;SDS011;30662;51.210;7.656;2023-05-31T08:53:20;3.08;;;2.03;;
44925;SDS011;30662;51.210;7.656;2023-05-31T08:55:49;6.30;;;2.25;;
44925;SDS011;30662;51.210;7.656;2023-05-31T08:58:17;5.95;;;2.10;;
44925;SDS011;30662;51.210;7.656;2023-05-31T09:00:44;6.75;;;2.10;;
44925;SDS011;30662;51.210;7.656;2023-05-31T09:03:11;9.13;;;2.60;;
44925;SDS011;30662;51.210;7.656;2023-05-31T09:05:38;7.82;;;2.45;;
44925;SDS011;30662;51.210;7.656;2023-05-31T09:08:04;7.38;;;3.13;;
44925;SDS011;30662;51.210;7.656;2023-05-31T09:10:31;4.95;;;2.30;;
44925;SDS011;30662;51.210;7.656;2023-05-31T09:12:57;7.63;;;2.55;;
44925;SDS011;30662;51.210;7.656;2023-05-31T09:15:24;5.70;;;1.95;;
44925;SDS011;30662;51.210;7.656;2023-05-31T09:17:50;9.73;;;3.45;;
44925;SDS011;30662;51.210;7.656;2023-05-31T09:20:20;9.20;;;2.63;;
44925;SDS011;30662;51.210;7.656;2023-05-31T09:22:47;7.97;;;3.08;;
44925;SDS011;30662;51.210;7.656;2023-05-31T09:25:15;10.20;;;3.40;;
44925;SDS011;30662;51.210;7.656;2023-05-31T09:27:41;6.78;;;2.15;;
44925;SDS011;30662;51.210;7.656;2023-05-31T09:30:11;6.95;;;2.38;;
44925;SDS011;30662;51.210;7.656;2023-05-31T09:32:39;5.20;;;2.22;;
44925;SDS011;30662;51.210;7.656;2023-05-31T09:35:17;4.60;;;2.35;;
44925;SDS011;30662;51.210;7.656;2023-05-31T09:37:46;4.32;;;1.92;;
44925;SDS011;30662;51.210;7.656;2023-05-31T09:40:14;8.70;;;2.08;;
44925;SDS011;30662;51.210;7.656;2023-05-31T09:42:50;10.98;;;4.38;;
44925;SDS011;30662;51.210;7.656;2023-05-31T09:45:17;5.50;;;2.10;;
44925;SDS011;30662;51.210;7.656;2023-05-31T09:47:44;4.38;;;1.90;;
44925;SDS011;30662;51.210;7.656;2023-05-31T09:50:10;5.03;;;1.98;;
44925;SDS011;30662;51.210;7.656;2023-05-31T09:52:40;5.15;;;1.92;;
44925;SDS011;30662;51.210;7.656;2023-05-31T09:55:10;5.53;;;2.05;;
44925;SDS011;30662;51.210;7.656;2023-05-31T09:57:38;5.85;;;2.03;;
44925;SDS011;30662;51.210;7.656;2023-05-31T10:00:09;7.30;;;2.50;;
44925;SDS011;30662;51.210;7.656;2023-05-31T10:02:47;10.30;;;2.55;;
44925;SDS011;30662;51.210;7.656;2023-05-31T10:05:15;10.13;;;2.40;;
44925;SDS011;30662;51.210;7.656;2023-05-31T10:07:42;9.85;;;2.35;;
44925;SDS011;30662;51.210;7.656;2023-05-31T10:10:10;7.38;;;2.45;;
44925;SDS011;30662;51.210;7.656;2023-05-31T10:15:19;8.15;;;2.55;;
44925;SDS011;30662;51.210;7.656;2023-05-31T10:17:50;15.25;;;2.75;;
44925;SDS011;30662;51.210;7.656;2023-05-31T10:20:18;4.30;;;1.73;;
44925;SDS011;30662;51.210;7.656;2023-05-31T10:22:45;4.85;;;1.90;;
44925;SDS011;30662;51.210;7.656;2023-05-31T10:25:17;5.40;;;2.17;;
44925;SDS011;30662;51.210;7.656;2023-05-31T10:27:49;6.80;;;1.85;;
44925;SDS011;30662;51.210;7.656;2023-05-31T10:30:16;9.82;;;2.05;;
44925;SDS011;30662;51.210;7.656;2023-05-31T10:32:53;4.43;;;2.03;;
44925;SDS011;30662;51.210;7.656;2023-05-31T10:35:25;12.23;;;2.65;;
44925;SDS011;30662;51.210;7.656;2023-05-31T10:37:52;3.35;;;1.60;;
44925;SDS011;30662;51.210;7.656;2023-05-31T10:40:23;3.92;;;1.75;;
44925;SDS011;30662;51.210;7.656;2023-05-31T10:43:29;6.47;;;2.20;;
44925;SDS011;30662;51.210;7.656;2023-05-31T10:46:01;7.93;;;2.00;;
44925;SDS011;30662;51.210;7.656;2023-05-31T10:53:35;12.63;;;2.63;;
44925;SDS011;30662;51.210;7.656;2023-05-31T10:56:04;6.13;;;1.95;;
44925;SDS011;30662;51.210;7.656;2023-05-31T10:58:36;6.28;;;1.80;;
44925;SDS011;30662;51.210;7.656;2023-05-31T11:01:13;9.60;;;2.75;;
44925;SDS011;30662;51.210;7.656;2023-05-31T11:03:48;5.88;;;2.58;;
44925;SDS011;30662;51.210;7.656;2023-05-31T11:06:17;6.80;;;2.45;;
44925;SDS011;30662;51.210;7.656;2023-05-31T11:14:01;6.60;;;2.83;;
44925;SDS011;30662;51.210;7.656;2023-05-31T11:16:32;7.25;;;2.17;;
44925;SDS011;30662;51.210;7.656;2023-05-31T11:19:03;5.70;;;2.40;;
44925;SDS011;30662;51.210;7.656;2023-05-31T11:21:50;6.45;;;2.00;;
44925;SDS011;30662;51.210;7.656;2023-05-31T11:24:37;8.63;;;2.15;;
44925;SDS011;30662;51.210;7.656;2023-05-31T11:27:05;4.07;;;1.80;;
44925;SDS011;30662;51.210;7.656;2023-05-31T11:35:09;3.83;;;2.20;;
44925;SDS011;30662;51.210;7.656;2023-05-31T11:37:40;4.10;;;1.80;;
44925;SDS011;30662;51.210;7.656;2023-05-31T11:40:09;4.95;;;1.98;;
44925;SDS011;30662;51.210;7.656;2023-05-31T11:42:41;7.60;;;2.60;;
44925;SDS011;30662;51.210;7.656;2023-05-31T11:45:09;7.65;;;1.90;;
44925;SDS011;30662;51.210;7.656;2023-05-31T11:50:13;11.20;;;2.25;;
44925;SDS011;30662;51.210;7.656;2023-05-31T11:52:43;4.20;;;1.92;;
44925;SDS011;30662;51.210;7.656;2023-05-31T11:55:10;5.20;;;2.00;;
44925;SDS011;30662;51.210;7.656;2023-05-31T11:57:42;4.32;;;1.40;;
44925;SDS011;30662;51.210;7.656;2023-05-31T12:00:12;6.80;;;1.88;;
44925;SDS011;30662;51.210;7.656;2023-05-31T12:02:41;5.03;;;1.80;;
44925;SDS011;30662;51.210;7.656;2023-05-31T12:05:11;5.60;;;2.30;;
44925;SDS011;30662;51.210;7.656;2023-05-31T12:07:38;4.15;;;1.88;;
44925;SDS011;30662;51.210;7.656;2023-05-31T12:10:04;7.60;;;1.88;;
44925;SDS011;30662;51.210;7.656;2023-05-31T12:12:32;17.20;;;2.10;;
44925;SDS011;30662;51.210;7.656;2023-05-31T12:14:58;4.05;;;1.83;;
44925;SDS011;30662;51.210;7.656;2023-05-31T12:17:30;5.18;;;1.95;;
44925;SDS011;30662;51.210;7.656;2023-05-31T12:19:56;8.60;;;2.03;;
44925;SDS011;30662;51.210;7.656;2023-05-31T12:22:22;6.75;;;1.88;;
44925;SDS011;30662;51.210;7.656;2023-05-31T12:24:49;7.10;;;2.00;;
44925;SDS011;30662;51.210;7.656;2023-05-31T12:27:19;3.53;;;1.67;;
44925;SDS011;30662;51.210;7.656;2023-05-31T12:30:02;5.32;;;2.30;;
44925;SDS011;30662;51.210;7.656;2023-05-31T12:32:28;7.13;;;2.28;;
44925;SDS011;30662;51.210;7.656;2023-05-31T12:35:07;6.65;;;2.08;;
44925;SDS011;30662;51.210;7.656;2023-05-31T12:37:37;11.35;;;2.25;;
44925;SDS011;30662;51.210;7.656;2023-05-31T12:40:11;10.70;;;2.15;;
44925;SDS011;30662;51.210;7.656;2023-05-31T12:45:05;7.13;;;1.83;;
44925;SDS011;30662;51.210;7.656;2023-05-31T12:47:32;8.57;;;2.47;;
44925;SDS011;30662;51.210;7.656;2023-05-31T12:50:05;7.97;;;2.20;;
44925;SDS011;30662;51.210;7.656;2023-05-31T12:52:34;6.60;;;2.17;;
44925;SDS011;30662;51.210;7.656;2023-05-31T12:55:01;9.88;;;2.58;;
44925;SDS011;30662;51.210;7.656;2023-05-31T12:57:27;5.10;;;2.17;;
44925;SDS011;30662;51.210;7.656;2023-05-31T12:59:57;7.35;;;2.15;;
44925;SDS011;30662;51.210;7.656;2023-05-31T13:02:27;3.53;;;2.00;;
44925;SDS011;30662;51.210;7.656;2023-05-31T13:04:53;4.50;;;1.90;;
44925;SDS011;30662;51.210;7.656;2023-05-31T13:07:23;4.53;;;1.92;;
44925;SDS011;30662;51.210;7.656;2023-05-31T13:09:49;6.53;;;2.13;;
44925;SDS011;30662;51.210;7.656;2023-05-31T13:12:15;7.13;;;2.10;;
44925;SDS011;30662;51.210;7.656;2023-05-31T13:14:43;9.13;;;2.38;;
44925;SDS011;30662;51.210;7.656;2023-05-31T13:17:09;9.93;;;2.40;;
44925;SDS011;30662;51.210;7.656;2023-05-31T13:19:35;13.48;;;2.50;;
44925;SDS011;30662;51.210;7.656;2023-05-31T13:22:02;9.02;;;2.03;;
44925;SDS011;30662;51.210;7.656;2023-05-31T13:24:28;7.85;;;2.35;;
44925;SDS011;30662;51.210;7.656;2023-05-31T13:26:54;6.65;;;1.80;;
44925;SDS011;30662;51.210;7.656;2023-05-31T13:29:20;4.63;;;1.85;;
44925;SDS011;30662;51.210;7.656;2023-05-31T13:31:48;4.35;;;1.75;;
44925;SDS011;30662;51.210;7.656;2023-05-31T13:34:15;11.85;;;2.00;;
44925;SDS011;30662;51.210;7.656;2023-05-31T13:36:41;3.53;;;1.58;;
44925;SDS011;30662;51.210;7.656;2023-05-31T13:39:07;6.18;;;1.88;;
44925;SDS011;30662;51.210;7.656;2023-05-31T13:41:33;5.68;;;1.80;;
44925;SDS011;30662;51.210;7.656;2023-05-31T13:43:59;6.25;;;2.20;;
44925;SDS011;30662;51.210;7.656;2023-05-31T13:46:24;5.65;;;1.58;;
44925;SDS011;30662;51.210;7.656;2023-05-31T13:48:52;3.70;;;1.52;;
44925;SDS011;30662;51.210;7.656;2023-05-31T13:51:18;2.45;;;1.45;;
44925;SDS011;30662;51.210;7.656;2023-05-31T13:53:44;5.57;;;1.75;;
44925;SDS011;30662;51.210;7.656;2023-05-31T13:56:10;5.78;;;2.00;;
44925;SDS011;30662;51.210;7.656;2023-05-31T13:58:36;3.95;;;1.58;;
44925;SDS011;30662;51.210;7.656;2023-05-31T14:01:04;4.45;;;1.70;;
44925;SDS011;30662;51.210;7.656;2023-05-31T14:03:33;9.43;;;1.77;;
44925;SDS011;30662;51.210;7.656;2023-05-31T14:05:59;6.45;;;1.63;;
44925;SDS011;30662;51.210;7.656;2023-05-31T14:08:25;7.00;;;2.08;;
44925;SDS011;30662;51.210;7.656;2023-05-31T14:10:52;5.40;;;1.92;;
44925;SDS011;30662;51.210;7.656;2023-05-31T14:13:18;4.63;;;1.50;;
44925;SDS011;30662;51.210;7.656;2023-05-31T14:15:44;4.82;;;1.65;;
44925;SDS011;30662;51.210;7.656;2023-05-31T14:18:10;3.72;;;1.67;;
44925;SDS011;30662;51.210;7.656;2023-05-31T14:20:36;4.57;;;1.83;;
44925;SDS011;30662;51.210;7.656;2023-05-31T14:23:02;3.70;;;1.50;;
44925;SDS011;30662;51.210;7.656;2023-05-31T14:25:29;7.20;;;1.52;;
44925;SDS011;30662;51.210;7.656;2023-05-31T14:27:55;8.35;;;1.55;;
44925;SDS011;30662;51.210;7.656;2023-05-31T14:30:20;6.22;;;1.38;;
44925;SDS011;30662;51.210;7.656;2023-05-31T14:32:47;6.05;;;1.52;;
44925;SDS011;30662;51.210;7.656;2023-05-31T14:35:13;4.75;;;1.98;;
44925;SDS011;30662;51.210;7.656;2023-05-31T14:37:40;4.45;;;1.73;;
44925;SDS011;30662;51.210;7.656;2023-05-31T14:40:25;4.50;;;1.50;;
44925;SDS011;30662;51.210;7.656;2023-05-31T14:42:51;3.83;;;2.00;;
44925;SDS011;30662;51.210;7.656;2023-05-31T14:45:17;3.83;;;1.40;;
44925;SDS011;30662;51.210;7.656;2023-05-31T14:47:44;3.58;;;1.58;;
44925;SDS011;30662;51.210;7.656;2023-05-31T14:50:10;3.63;;;1.42;;
44925;SDS011;30662;51.210;7.656;2023-05-31T14:52:36;4.82;;;1.90;;
44925;SDS011;30662;51.210;7.656;2023-05-31T14:55:02;5.15;;;1.40;;
44925;SDS011;30662;51.210;7.656;2023-05-31T14:57:28;2.75;;;1.60;;
44925;SDS011;30662;51.210;7.656;2023-05-31T14:59:54;4.72;;;1.80;;
44925;SDS011;30662;51.210;7.656;2023-05-31T15:02:20;2.92;;;1.50;;
44925;SDS011;30662;51.210;7.656;2023-05-31T15:04:46;5.40;;;1.98;;
44925;SDS011;30662;51.210;7.656;2023-05-31T15:07:12;4.25;;;1.60;;
44925;SDS011;30662;51.210;7.656;2023-05-31T15:09:39;3.22;;;1.42;;
44925;SDS011;30662;51.210;7.656;2023-05-31T15:12:05;5.88;;;1.70;;
44925;SDS011;30662;51.210;7.656;2023-05-31T15:14:32;6.22;;;1.90;;
44925;SDS011;30662;51.210;7.656;2023-05-31T15:16:58;5.20;;;1.67;;
44925;SDS011;30662;51.210;7.656;2023-05-31T15:19:24;3.83;;;1.67;;